Flight Track Log - Related Links

Times and Time Zones

All times are in EDT time to prevent confusion due to time zone crossing. See the UAL3832 flight status page for this flight to view local times or setup timezone preferences in your user account.

Time Position Orientation Groundspeed Altitude Reporting Facility
EDT Latitude Longitude Course Direction KTS MPH feet Rate Location/Type
Tue 01:40:53 PM 40.6500 -74.1833 270° West 185 213 1,500  Level New York TRACON
Tue 01:41:53 PM 40.6667 -74.2667 285° West 234 269 3,500 2,095 Climbing New York TRACON
Tue 01:42:59 PM 40.6833 -74.3667 282° West 268 308 5,900 2,333 Climbing New York TRACON
Tue 01:43:00 PM 40.7385 -74.5731 277° West  Level FlightAware Approximate
Tue 01:43:59 PM 40.7000 -74.4667 282° West 281 323 8,400  Level New York TRACON
Tue 01:44:00 PM 40.7512 -74.7149 276° West  Level FlightAware Approximate
Tue 01:44:59 PM 40.7167 -74.5667 282° West 271 312 11,200  Level New York TRACON
Tue 01:45:00 PM 40.7621 -74.8569 276° West  Level FlightAware Approximate
Tue 01:45:52 PM 40.7317 -74.6406 285° West 263 303 13,700  Level New York Center
Tue 01:46:00 PM 40.7833 -74.9947 270° West  Level FlightAware Approximate
Tue 01:46:52 PM 40.7433 -74.7233 281° West 255 293 14,600  Level New York Center
Tue 01:47:53 PM 40.7619 -74.8506 281° West 303 349 15,200 645 Climbing New York Center
Tue 01:48:53 PM 40.7825 -74.9778 282° West 345 397 15,900 893 Climbing New York Center
Tue 01:49:54 PM 40.8008 -75.1078 281° West 364 419 17,000 1,008 Climbing New York Center
Tue 01:50:52 PM 40.7875 -75.2414 263° West 369 425 17,900 1,008 Climbing New York Center
Tue 01:51:53 PM 40.7703 -75.3633 259° West 374 430 19,000 1,131 Climbing New York Center
Tue 01:52:54 PM 40.7231 -75.5028 246° West 374 430 20,200 1,190 Climbing New York Center
Tue 01:53:54 PM 40.6764 -75.6281 244° Southwest 385 443 21,400 1,231 Climbing New York Center
Tue 01:54:51 PM 40.6272 -75.7558 243° Southwest 391 450 22,600 1,169 Climbing New York Center
Tue 01:55:52 PM 40.5822 -75.8811 245° Southwest 396 456 23,700 1,073 Climbing New York Center
Tue 01:56:54 PM 40.5336 -75.9947 241° Southwest 396 456 24,800 1,131 Climbing New York Center
Tue 01:57:54 PM 40.4842 -76.1167 242° Southwest 396 456 26,000 1,169 Climbing New York Center
Tue 01:58:52 PM 40.4389 -76.2442 245° Southwest 396 456 27,100 1,150 Climbing New York Center
Tue 01:59:54 PM 40.3936 -76.3658 244° Southwest 386 444 28,300 1,180 Climbing New York Center
Tue 02:00:54 PM 40.3606 -76.4911 251° West 381 438 29,500 1,150 Climbing New York Center
Tue 02:01:54 PM 40.3439 -76.6178 260° West 368 423 30,600 1,169 Climbing New York Center
Tue 02:02:52 PM 40.3308 -76.7503 263° West 368 423 31,800 1,200 Climbing New York Center
Tue 02:03:54 PM 40.3158 -76.8822 262° West 368 423 33,000 1,150 Climbing New York Center
Tue 02:04:52 PM 40.3008 -77.0117 261° West 368 423 34,100 1,160 Climbing New York Center
Tue 02:05:53 PM 40.2856 -77.1408 261° West 368 423 35,300 942 Climbing New York Center
Tue 02:06:53 PM 40.2703 -77.2675 261° West 368 423 36,000 244 Climbing New York Center
Tue 02:08:45 PM 40.2433 -77.5419 263° West 375 432 36,000  Level Cleveland Center
Tue 02:09:46 PM 40.2242 -77.6897 260° West 396 456 36,000  Level Cleveland Center
Tue 02:10:46 PM 40.2072 -77.8456 262° West 420 483 36,000  Level Cleveland Center
Tue 02:11:46 PM 40.1858 -77.9986 260° West 432 497 36,000  Level Cleveland Center
Tue 02:12:46 PM 40.1683 -78.1514 262° West 432 497 36,000  Level Cleveland Center
Tue 02:13:46 PM 40.1464 -78.3042 259° West 432 497 36,000  Level Cleveland Center
Tue 02:14:46 PM 40.1286 -78.4569 261° West 432 497 36,000  Level Cleveland Center
Tue 02:15:46 PM 40.1106 -78.6069 261° West 432 497 36,000  Level Cleveland Center
Tue 02:16:46 PM 40.0900 -78.7594 260° West 432 497 36,000  Level Cleveland Center
Tue 02:17:46 PM 40.0694 -78.9092 260° West 427 491 36,000  Level Cleveland Center
Tue 02:18:46 PM 40.0544 -79.0317 261° West 427 491 36,000  Level Cleveland Center
Tue 02:19:46 PM 40.0339 -79.2003 261° West 427 491 36,000  Level Cleveland Center
Tue 02:20:45 PM 40.0147 -79.3497 261° West 427 491 36,000  Level Cleveland Center
Tue 02:21:46 PM 40.0058 -79.5153 266° West 427 491 36,000  Level Cleveland Center
Tue 02:22:45 PM 40.0094 -79.6722 272° West 427 491 36,000  Level Cleveland Center
Tue 02:23:46 PM 40.0106 -79.8269 271° West 422 486 36,000  Level Cleveland Center
Tue 02:24:46 PM 40.0136 -79.9814 272° West 422 486 36,000  Level Cleveland Center
Tue 02:25:46 PM 40.0164 -80.1386 271° West 427 491 36,000  Level Cleveland Center
Tue 02:26:45 PM 40.0147 -80.2931 269° West 427 491 36,000  Level Cleveland Center
Tue 02:27:46 PM 40.0169 -80.4503 271° West 432 497 36,000  Level Cleveland Center
Tue 02:28:46 PM 40.0192 -80.6047 271° West 437 503 36,000  Level Cleveland Center
Tue 02:31:12 PM 40.0144 -80.9906 269° West 437 503 36,000  Level Indianapolis Center
Tue 02:32:14 PM 40.0122 -81.1517 269° West 440 506 36,000  Level Indianapolis Center
Tue 02:33:16 PM 40.0103 -81.3122 269° West 439 505 36,000  Level Indianapolis Center
Tue 02:34:18 PM 40.0064 -81.4744 268° West 442 509 36,000  Level Indianapolis Center
Tue 02:35:20 PM 40.0036 -81.6367 269° West 442 509 36,000  Level Indianapolis Center
Tue 02:36:21 PM 39.9994 -81.7992 268° West 443 510 36,000  Level Indianapolis Center
Tue 02:37:23 PM 39.9969 -81.9625 269° West 446 513 36,000  Level Indianapolis Center
Tue 02:38:25 PM 39.9919 -82.1264 268° West 448 516 36,000  Level Indianapolis Center
Tue 02:39:27 PM 39.9872 -82.3178 268° West 449 517 36,000  Level Indianapolis Center
Tue 02:40:29 PM 39.9833 -82.4800 268° West 444 511 36,000  Level Indianapolis Center
Tue 02:41:30 PM 39.9778 -82.6439 268° West 449 517 36,000  Level Indianapolis Center
Tue 02:42:32 PM 39.9739 -82.8075 268° West 448 516 36,000  Level Indianapolis Center
Tue 02:43:34 PM 39.9686 -82.9708 268° West 447 514 36,000 -48 Level Indianapolis Center
Tue 02:44:36 PM 39.9647 -83.1342 268° West 448 516 35,900  Descending Indianapolis Center
Tue 02:45:38 PM 39.9603 -83.2975 268° West 449 517 36,000 48 Climbing Indianapolis Center
Tue 02:46:40 PM 39.9533 -83.4847 267° West 449 517 36,000  Level Indianapolis Center
Tue 02:47:41 PM 39.9478 -83.6358 267° West 425 489 36,000  Level Indianapolis Center
Tue 02:48:43 PM 39.9419 -83.7808 267° West 403 464 36,000  Level Indianapolis Center
Tue 02:49:45 PM 39.9369 -83.9247 267° West 397 457 36,000 -677 Level Indianapolis Center
Tue 02:50:47 PM 39.9317 -84.0744 267° West 410 472 34,600 -976 Descending Indianapolis Center
Tue 02:51:48 PM 39.9239 -84.2358 266° West 440 506 34,000 -293 Descending Indianapolis Center
Tue 02:52:50 PM 39.9178 -84.4217 268° West 437 503 34,000  Level Indianapolis Center
Tue 02:53:52 PM 39.9083 -84.5806 266° West 437 503 34,000  Level Indianapolis Center
Tue 02:54:54 PM 39.9011 -84.7419 267° West 442 509 34,000  Level Indianapolis Center
Tue 02:55:56 PM 39.8936 -84.9083 267° West 455 524 34,000  Level Indianapolis Center
Tue 02:56:57 PM 39.9022 -85.0736 274° West 454 522 34,000  Level Indianapolis Center
Tue 02:57:59 PM 39.9219 -85.2292 279° West 435 501 34,000  Level Indianapolis Center
Tue 02:59:01 PM 39.9406 -85.3806 279° West 423 487 34,000  Level Indianapolis Center
Tue 03:00:03 PM 39.9575 -85.5361 278° West 429 494 34,000  Level Indianapolis Center
Tue 03:01:05 PM 39.9472 -85.6975 265° West 440 506 34,000  Level Indianapolis Center
Tue 03:02:07 PM 39.9369 -85.8914 266° West 453 521 34,000 -145 Level Indianapolis Center
Tue 03:03:09 PM 39.9297 -86.0347 266° West 449 517 33,700 -387 Descending Indianapolis Center
Tue 03:04:11 PM 39.9192 -86.1889 265° West 433 498 33,200 -484 Descending Indianapolis Center
Tue 03:05:13 PM 39.8358 -86.3261 232° Southwest 411 473 32,700 -484 Descending Indianapolis Center
Tue 03:06:15 PM 39.7297 -86.3525 191° South 389 448 32,200 -339 Descending Indianapolis Center
Tue 03:07:17 PM 39.6217 -86.3456 177° South 385 443 32,000 -97 Descending Indianapolis Center
Tue 03:08:19 PM 39.5147 -86.3625 187° South 400 460 32,000  Level Indianapolis Center
Tue 03:09:21 PM 39.4703 -86.4964 247° West 413 475 32,000  Level Indianapolis Center
Tue 03:10:23 PM 39.4628 -86.6528 266° West 433 498 32,000  Level Indianapolis Center
Tue 03:11:25 PM 39.4531 -86.8439 266° West 442 509 32,000  Level Indianapolis Center
Tue 03:12:27 PM 39.4464 -87.0058 267° West 449 517 32,000  Level Indianapolis Center
Tue 03:13:29 PM 39.4389 -87.1697 267° West 455 524 32,000  Level Indianapolis Center
Tue 03:14:31 PM 39.4294 -87.3353 266° West 461 531 32,000 -528 Level Indianapolis Center
Tue 03:15:34 PM 39.4214 -87.4983 266° West 458 527 30,900 -1,104 Descending Indianapolis Center
Tue 03:16:36 PM 39.4122 -87.6581 266° West 448 516 29,700 -1,113 Descending Indianapolis Center
Tue 03:17:38 PM 39.4019 -87.8464 266° West 442 509 28,600 -816 Descending Indianapolis Center
Tue 03:18:19 PM 39.3969 -87.9433 266° West 440 506 28,300 -699 Descending Kansas City Center
Tue 03:19:21 PM 39.3772 -88.1011 261° West 444 511 27,400 -1,113 Descending Kansas City Center
Tue 03:20:23 PM 39.3350 -88.2614 251° West 462 532 26,000 -1,355 Descending Kansas City Center
Tue 03:21:25 PM 39.2939 -88.4203 252° West 467 537 24,600 -1,452 Descending Kansas City Center
Tue 03:22:27 PM 39.2431 -88.6025 250° West 457 526 23,000 -1,065 Descending Kansas City Center
Tue 03:24:31 PM 39.1703 -88.8772 251° West 412 474 21,300 -774 Descending Kansas City Center
Tue 03:25:33 PM 39.1300 -89.0267 251° West 405 466 20,600 -629 Descending Kansas City Center
Tue 03:26:35 PM 39.0919 -89.1686 251° West 418 481 20,000 -774 Descending Kansas City Center
Tue 03:27:37 PM 39.0575 -89.3225 254° West 417 480 19,000 -1,306 Descending Kansas City Center
Tue 03:28:39 PM 39.0272 -89.4608 254° West 407 468 17,300 -1,984 Descending Kansas City Center
Tue 03:29:41 PM 38.9978 -89.5900 254° West 355 409 14,900 -2,177 Descending Kansas City Center
Tue 03:30:43 PM 38.9639 -89.6992 248° West 334 384 12,800 -1,935 Descending Kansas City Center
Tue 03:31:45 PM 38.9294 -89.8072 248° West 308 354 10,900 -1,694 Descending Kansas City Center
Tue 03:32:47 PM 38.9047 -89.8856 248° West 284 327 9,300 -1,403 Descending Kansas City Center
Tue 03:33:49 PM 38.8769 -89.9714 247° West 267 307 8,000 -629 Descending Kansas City Center
Tue 03:34:51 PM 38.8453 -90.0731 248° West 260 299 8,000  Level Kansas City Center
Tue 03:35:53 PM 38.8181 -90.1581 248° West 260 299 8,000 -145 Level Kansas City Center
Tue 03:36:55 PM 38.8192 -90.2461 271° West 269 310 7,700 -1,161 Descending Kansas City Center
Tue 03:37:57 PM 38.8503 -90.3311 295° West 269 310 5,600 -1,960 Descending Kansas City Center
Tue 03:38:36 PM 38.8667 -90.4000 287° West 233 268 4,400 -1,258 Descending Gateway (St. Louis) TRACON
Tue 03:38:59 PM 38.8764 -90.4089 325° Northwest 254 292 4,300 -918 Descending Kansas City Center
Tue 03:40:01 PM 38.9008 -90.4875 292° West 216 249 3,100 -629 Descending Kansas City Center
Tue 03:41:03 PM 38.8808 -90.5403 244° Southwest 188 216 3,000 -48 Descending Kansas City Center
Tue 03:42:05 PM 38.8403 -90.5472 188° South 187 215 3,000  Level Kansas City Center

Login

Don't have an account? Register now (free) for customized features, flight alerts, and more!